sensor_id;sensor_type;location;lat;lon;timestamp;P1;durP1;ratioP1;P2;durP2;ratioP2
20611;SDS011;10465;42.686;23.364;2023-02-28T00:01:24;22.33;;;13.00;;
20611;SDS011;10465;42.686;23.364;2023-02-28T00:03:49;20.67;;;12.98;;
20611;SDS011;10465;42.686;23.364;2023-02-28T00:06:15;22.65;;;14.02;;
20611;SDS011;10465;42.686;23.364;2023-02-28T00:08:41;20.08;;;12.10;;
20611;SDS011;10465;42.686;23.364;2023-02-28T00:11:08;22.08;;;12.63;;
20611;SDS011;10465;42.686;23.364;2023-02-28T00:13:36;23.00;;;12.10;;
20611;SDS011;10465;42.686;23.364;2023-02-28T00:16:04;20.83;;;12.20;;
20611;SDS011;10465;42.686;23.364;2023-02-28T00:18:31;23.02;;;12.48;;
20611;SDS011;10465;42.686;23.364;2023-02-28T00:20:57;18.98;;;11.35;;
20611;SDS011;10465;42.686;23.364;2023-02-28T00:23:24;20.00;;;11.98;;
20611;SDS011;10465;42.686;23.364;2023-02-28T00:25:50;21.02;;;11.88;;
20611;SDS011;10465;42.686;23.364;2023-02-28T00:28:15;22.50;;;12.70;;
20611;SDS011;10465;42.686;23.364;2023-02-28T00:30:41;21.73;;;12.18;;
20611;SDS011;10465;42.686;23.364;2023-02-28T00:33:06;21.77;;;12.40;;
20611;SDS011;10465;42.686;23.364;2023-02-28T00:35:31;21.80;;;12.90;;
20611;SDS011;10465;42.686;23.364;2023-02-28T00:37:57;19.00;;;12.63;;
20611;SDS011;10465;42.686;23.364;2023-02-28T00:40:22;22.52;;;13.18;;
20611;SDS011;10465;42.686;23.364;2023-02-28T00:42:48;24.90;;;14.73;;
20611;SDS011;10465;42.686;23.364;2023-02-28T00:45:13;26.77;;;15.20;;
20611;SDS011;10465;42.686;23.364;2023-02-28T00:47:39;24.83;;;14.18;;
20611;SDS011;10465;42.686;23.364;2023-02-28T00:50:04;22.65;;;13.90;;
20611;SDS011;10465;42.686;23.364;2023-02-28T00:52:30;22.23;;;14.70;;
20611;SDS011;10465;42.686;23.364;2023-02-28T00:54:56;27.10;;;15.52;;
20611;SDS011;10465;42.686;23.364;2023-02-28T00:57:21;25.48;;;15.05;;
20611;SDS011;10465;42.686;23.364;2023-02-28T00:59:47;24.25;;;15.02;;
20611;SDS011;10465;42.686;23.364;2023-02-28T01:02:13;23.15;;;14.32;;
20611;SDS011;10465;42.686;23.364;2023-02-28T01:04:38;24.02;;;15.02;;
20611;SDS011;10465;42.686;23.364;2023-02-28T01:07:04;25.77;;;14.98;;
20611;SDS011;10465;42.686;23.364;2023-02-28T01:09:29;25.77;;;14.70;;
20611;SDS011;10465;42.686;23.364;2023-02-28T01:11:55;22.80;;;13.38;;
20611;SDS011;10465;42.686;23.364;2023-02-28T01:14:20;23.17;;;14.77;;
20611;SDS011;10465;42.686;23.364;2023-02-28T01:16:46;25.33;;;14.93;;
20611;SDS011;10465;42.686;23.364;2023-02-28T01:19:11;23.58;;;14.75;;
20611;SDS011;10465;42.686;23.364;2023-02-28T01:21:37;24.23;;;14.45;;
20611;SDS011;10465;42.686;23.364;2023-02-28T01:24:03;21.98;;;13.98;;
20611;SDS011;10465;42.686;23.364;2023-02-28T01:26:29;23.35;;;14.27;;
20611;SDS011;10465;42.686;23.364;2023-02-28T01:28:56;22.45;;;14.95;;
20611;SDS011;10465;42.686;23.364;2023-02-28T01:31:21;23.70;;;14.70;;
20611;SDS011;10465;42.686;23.364;2023-02-28T01:33:47;23.10;;;14.63;;
20611;SDS011;10465;42.686;23.364;2023-02-28T01:36:18;22.60;;;14.32;;
20611;SDS011;10465;42.686;23.364;2023-02-28T01:38:45;26.58;;;14.55;;
20611;SDS011;10465;42.686;23.364;2023-02-28T01:41:19;20.70;;;13.20;;
20611;SDS011;10465;42.686;23.364;2023-02-28T01:46:12;21.73;;;14.18;;
20611;SDS011;10465;42.686;23.364;2023-02-28T01:48:40;25.30;;;14.65;;
20611;SDS011;10465;42.686;23.364;2023-02-28T01:51:58;23.55;;;14.30;;
20611;SDS011;10465;42.686;23.364;2023-02-28T01:54:00;21.35;;;14.30;;
20611;SDS011;10465;42.686;23.364;2023-02-28T01:56:30;20.92;;;13.27;;
20611;SDS011;10465;42.686;23.364;2023-02-28T01:58:59;22.60;;;14.50;;
20611;SDS011;10465;42.686;23.364;2023-02-28T02:01:25;22.90;;;14.23;;
20611;SDS011;10465;42.686;23.364;2023-02-28T02:03:56;24.67;;;13.93;;
20611;SDS011;10465;42.686;23.364;2023-02-28T02:06:31;25.75;;;14.80;;
20611;SDS011;10465;42.686;23.364;2023-02-28T02:09:00;25.67;;;14.98;;
20611;SDS011;10465;42.686;23.364;2023-02-28T02:11:27;25.25;;;15.15;;
20611;SDS011;10465;42.686;23.364;2023-02-28T02:17:16;28.33;;;17.05;;
20611;SDS011;10465;42.686;23.364;2023-02-28T02:39:39;28.63;;;16.88;;
20611;SDS011;10465;42.686;23.364;2023-02-28T02:42:28;24.98;;;15.27;;
20611;SDS011;10465;42.686;23.364;2023-02-28T02:44:58;26.52;;;15.98;;
20611;SDS011;10465;42.686;23.364;2023-02-28T02:47:30;28.73;;;16.23;;
20611;SDS011;10465;42.686;23.364;2023-02-28T02:49:57;27.23;;;15.50;;
20611;SDS011;10465;42.686;23.364;2023-02-28T02:52:30;29.33;;;17.17;;
20611;SDS011;10465;42.686;23.364;2023-02-28T02:55:01;27.58;;;16.73;;
20611;SDS011;10465;42.686;23.364;2023-02-28T02:58:03;31.17;;;17.63;;
20611;SDS011;10465;42.686;23.364;2023-02-28T03:00:27;31.20;;;18.13;;
20611;SDS011;10465;42.686;23.364;2023-02-28T03:02:58;31.90;;;18.00;;
20611;SDS011;10465;42.686;23.364;2023-02-28T03:05:25;32.20;;;17.25;;
20611;SDS011;10465;42.686;23.364;2023-02-28T03:07:54;33.58;;;18.38;;
20611;SDS011;10465;42.686;23.364;2023-02-28T03:10:37;32.22;;;17.83;;
20611;SDS011;10465;42.686;23.364;2023-02-28T03:24:08;33.70;;;19.63;;
20611;SDS011;10465;42.686;23.364;2023-02-28T03:26:42;36.45;;;20.27;;
20611;SDS011;10465;42.686;23.364;2023-02-28T03:29:25;35.85;;;19.33;;
20611;SDS011;10465;42.686;23.364;2023-02-28T03:31:59;41.95;;;20.58;;
20611;SDS011;10465;42.686;23.364;2023-02-28T03:34:36;41.45;;;20.77;;
20611;SDS011;10465;42.686;23.364;2023-02-28T03:37:05;40.97;;;21.20;;
20611;SDS011;10465;42.686;23.364;2023-02-28T03:42:11;41.15;;;20.02;;
20611;SDS011;10465;42.686;23.364;2023-02-28T03:47:26;39.97;;;21.45;;
20611;SDS011;10465;42.686;23.364;2023-02-28T03:49:56;39.22;;;20.60;;
20611;SDS011;10465;42.686;23.364;2023-02-28T03:52:36;42.20;;;21.38;;
20611;SDS011;10465;42.686;23.364;2023-02-28T03:55:09;43.80;;;22.08;;
20611;SDS011;10465;42.686;23.364;2023-02-28T04:00:39;41.15;;;20.63;;
20611;SDS011;10465;42.686;23.364;2023-02-28T04:03:10;43.78;;;20.88;;
20611;SDS011;10465;42.686;23.364;2023-02-28T04:05:44;40.38;;;20.95;;
20611;SDS011;10465;42.686;23.364;2023-02-28T04:08:16;43.22;;;21.30;;
20611;SDS011;10465;42.686;23.364;2023-02-28T04:10:41;42.50;;;22.30;;
20611;SDS011;10465;42.686;23.364;2023-02-28T04:13:15;33.13;;;17.90;;
20611;SDS011;10465;42.686;23.364;2023-02-28T04:15:40;30.00;;;16.98;;
20611;SDS011;10465;42.686;23.364;2023-02-28T04:18:06;35.83;;;18.02;;
20611;SDS011;10465;42.686;23.364;2023-02-28T04:20:31;34.40;;;17.17;;
20611;SDS011;10465;42.686;23.364;2023-02-28T04:22:57;38.08;;;18.48;;
20611;SDS011;10465;42.686;23.364;2023-02-28T04:25:22;35.97;;;19.05;;
20611;SDS011;10465;42.686;23.364;2023-02-28T04:27:47;37.65;;;18.58;;
20611;SDS011;10465;42.686;23.364;2023-02-28T04:30:13;39.88;;;19.88;;
20611;SDS011;10465;42.686;23.364;2023-02-28T04:32:38;40.38;;;19.92;;
20611;SDS011;10465;42.686;23.364;2023-02-28T04:35:04;40.67;;;19.83;;
20611;SDS011;10465;42.686;23.364;2023-02-28T04:37:30;35.67;;;18.73;;
20611;SDS011;10465;42.686;23.364;2023-02-28T04:40:00;37.50;;;20.60;;
20611;SDS011;10465;42.686;23.364;2023-02-28T04:42:26;46.25;;;24.00;;
20611;SDS011;10465;42.686;23.364;2023-02-28T04:44:51;46.35;;;24.38;;
20611;SDS011;10465;42.686;23.364;2023-02-28T04:47:17;41.03;;;22.38;;
20611;SDS011;10465;42.686;23.364;2023-02-28T04:49:42;41.60;;;20.83;;
20611;SDS011;10465;42.686;23.364;2023-02-28T04:52:08;39.28;;;20.35;;
20611;SDS011;10465;42.686;23.364;2023-02-28T04:54:35;45.83;;;22.40;;
20611;SDS011;10465;42.686;23.364;2023-02-28T04:57:00;44.80;;;23.30;;
20611;SDS011;10465;42.686;23.364;2023-02-28T04:59:26;52.47;;;23.77;;
20611;SDS011;10465;42.686;23.364;2023-02-28T05:01:51;44.70;;;23.98;;
20611;SDS011;10465;42.686;23.364;2023-02-28T05:04:17;50.22;;;27.20;;
20611;SDS011;10465;42.686;23.364;2023-02-28T05:06:43;51.40;;;25.83;;
20611;SDS011;10465;42.686;23.364;2023-02-28T05:09:08;45.92;;;24.30;;
20611;SDS011;10465;42.686;23.364;2023-02-28T05:11:36;50.42;;;25.30;;
20611;SDS011;10465;42.686;23.364;2023-02-28T05:14:03;53.97;;;26.08;;
20611;SDS011;10465;42.686;23.364;2023-02-28T05:16:31;60.17;;;28.02;;
20611;SDS011;10465;42.686;23.364;2023-02-28T05:18:56;56.28;;;27.20;;
20611;SDS011;10465;42.686;23.364;2023-02-28T05:21:23;59.13;;;27.92;;
20611;SDS011;10465;42.686;23.364;2023-02-28T05:23:54;54.72;;;28.30;;
20611;SDS011;10465;42.686;23.364;2023-02-28T05:26:21;62.72;;;29.15;;
20611;SDS011;10465;42.686;23.364;2023-02-28T05:28:47;57.55;;;28.70;;
20611;SDS011;10465;42.686;23.364;2023-02-28T05:31:12;53.95;;;27.02;;
20611;SDS011;10465;42.686;23.364;2023-02-28T05:33:38;51.42;;;26.00;;
20611;SDS011;10465;42.686;23.364;2023-02-28T05:36:04;50.90;;;26.42;;
20611;SDS011;10465;42.686;23.364;2023-02-28T05:38:30;53.00;;;25.70;;
20611;SDS011;10465;42.686;23.364;2023-02-28T05:40:56;49.63;;;24.65;;
20611;SDS011;10465;42.686;23.364;2023-02-28T05:43:21;49.75;;;24.95;;
20611;SDS011;10465;42.686;23.364;2023-02-28T05:45:47;46.38;;;23.35;;
20611;SDS011;10465;42.686;23.364;2023-02-28T05:48:13;49.97;;;24.55;;
20611;SDS011;10465;42.686;23.364;2023-02-28T05:50:38;49.22;;;25.42;;
20611;SDS011;10465;42.686;23.364;2023-02-28T05:53:03;46.97;;;23.63;;
20611;SDS011;10465;42.686;23.364;2023-02-28T05:55:29;48.42;;;23.50;;
20611;SDS011;10465;42.686;23.364;2023-02-28T05:57:54;55.53;;;25.42;;
20611;SDS011;10465;42.686;23.364;2023-02-28T06:00:21;49.85;;;24.65;;
20611;SDS011;10465;42.686;23.364;2023-02-28T06:02:46;55.45;;;25.85;;
20611;SDS011;10465;42.686;23.364;2023-02-28T06:05:13;54.38;;;26.83;;
20611;SDS011;10465;42.686;23.364;2023-02-28T06:07:40;55.70;;;26.40;;
20611;SDS011;10465;42.686;23.364;2023-02-28T06:10:05;58.80;;;27.48;;
20611;SDS011;10465;42.686;23.364;2023-02-28T06:12:31;52.50;;;25.77;;
20611;SDS011;10465;42.686;23.364;2023-02-28T06:14:57;52.35;;;26.45;;
20611;SDS011;10465;42.686;23.364;2023-02-28T06:17:22;58.08;;;28.60;;
20611;SDS011;10465;42.686;23.364;2023-02-28T06:19:48;62.13;;;28.55;;
20611;SDS011;10465;42.686;23.364;2023-02-28T06:22:13;65.10;;;31.13;;
20611;SDS011;10465;42.686;23.364;2023-02-28T06:24:39;66.03;;;31.42;;
20611;SDS011;10465;42.686;23.364;2023-02-28T06:27:04;61.08;;;29.85;;
20611;SDS011;10465;42.686;23.364;2023-02-28T06:29:31;60.00;;;29.95;;
20611;SDS011;10465;42.686;23.364;2023-02-28T06:31:57;64.50;;;31.77;;
20611;SDS011;10465;42.686;23.364;2023-02-28T06:34:23;79.47;;;35.70;;
20611;SDS011;10465;42.686;23.364;2023-02-28T06:36:49;66.75;;;33.17;;
20611;SDS011;10465;42.686;23.364;2023-02-28T06:39:15;68.95;;;35.25;;
20611;SDS011;10465;42.686;23.364;2023-02-28T06:41:41;61.60;;;33.22;;
20611;SDS011;10465;42.686;23.364;2023-02-28T06:44:16;58.28;;;30.80;;
20611;SDS011;10465;42.686;23.364;2023-02-28T06:46:43;52.97;;;28.58;;
20611;SDS011;10465;42.686;23.364;2023-02-28T06:49:10;50.75;;;27.45;;
20611;SDS011;10465;42.686;23.364;2023-02-28T06:51:40;47.25;;;26.38;;
20611;SDS011;10465;42.686;23.364;2023-02-28T06:54:08;45.13;;;25.70;;
20611;SDS011;10465;42.686;23.364;2023-02-28T06:56:34;41.17;;;24.42;;
20611;SDS011;10465;42.686;23.364;2023-02-28T06:59:00;44.05;;;24.90;;
20611;SDS011;10465;42.686;23.364;2023-02-28T07:01:26;35.33;;;21.42;;
20611;SDS011;10465;42.686;23.364;2023-02-28T07:03:53;38.28;;;22.05;;
20611;SDS011;10465;42.686;23.364;2023-02-28T07:06:20;42.75;;;24.48;;
20611;SDS011;10465;42.686;23.364;2023-02-28T07:08:47;45.33;;;24.95;;
20611;SDS011;10465;42.686;23.364;2023-02-28T07:11:13;48.65;;;26.23;;
20611;SDS011;10465;42.686;23.364;2023-02-28T07:13:39;51.67;;;28.67;;
20611;SDS011;10465;42.686;23.364;2023-02-28T07:16:05;51.15;;;28.25;;
20611;SDS011;10465;42.686;23.364;2023-02-28T07:18:34;52.97;;;28.75;;
20611;SDS011;10465;42.686;23.364;2023-02-28T07:21:01;49.78;;;27.58;;
20611;SDS011;10465;42.686;23.364;2023-02-28T07:23:28;50.90;;;28.38;;
20611;SDS011;10465;42.686;23.364;2023-02-28T07:25:53;56.78;;;29.73;;
20611;SDS011;10465;42.686;23.364;2023-02-28T07:28:19;47.53;;;27.60;;
20611;SDS011;10465;42.686;23.364;2023-02-28T07:30:44;59.05;;;30.80;;
20611;SDS011;10465;42.686;23.364;2023-02-28T07:33:10;51.42;;;29.20;;
20611;SDS011;10465;42.686;23.364;2023-02-28T07:35:35;54.10;;;29.83;;
20611;SDS011;10465;42.686;23.364;2023-02-28T07:38:01;49.75;;;29.27;;
20611;SDS011;10465;42.686;23.364;2023-02-28T07:40:28;53.50;;;31.75;;
20611;SDS011;10465;42.686;23.364;2023-02-28T07:42:53;56.03;;;32.50;;
20611;SDS011;10465;42.686;23.364;2023-02-28T07:45:19;55.63;;;32.05;;
20611;SDS011;10465;42.686;23.364;2023-02-28T07:47:44;53.00;;;30.30;;
20611;SDS011;10465;42.686;23.364;2023-02-28T07:50:11;52.47;;;30.85;;
20611;SDS011;10465;42.686;23.364;2023-02-28T07:52:38;52.58;;;30.30;;
20611;SDS011;10465;42.686;23.364;2023-02-28T07:55:04;45.80;;;28.15;;
20611;SDS011;10465;42.686;23.364;2023-02-28T07:57:31;49.65;;;28.38;;
20611;SDS011;10465;42.686;23.364;2023-02-28T07:59:56;47.35;;;28.98;;
20611;SDS011;10465;42.686;23.364;2023-02-28T08:02:22;40.13;;;26.30;;
20611;SDS011;10465;42.686;23.364;2023-02-28T08:04:47;41.40;;;26.45;;
20611;SDS011;10465;42.686;23.364;2023-02-28T08:07:14;45.58;;;26.40;;
20611;SDS011;10465;42.686;23.364;2023-02-28T08:09:41;42.03;;;26.33;;
20611;SDS011;10465;42.686;23.364;2023-02-28T08:12:07;42.30;;;25.85;;
20611;SDS011;10465;42.686;23.364;2023-02-28T08:14:33;39.03;;;24.67;;
20611;SDS011;10465;42.686;23.364;2023-02-28T08:16:59;37.00;;;24.17;;
20611;SDS011;10465;42.686;23.364;2023-02-28T08:19:24;39.28;;;25.45;;
20611;SDS011;10465;42.686;23.364;2023-02-28T08:21:50;40.33;;;24.67;;
20611;SDS011;10465;42.686;23.364;2023-02-28T08:24:15;37.13;;;24.58;;
20611;SDS011;10465;42.686;23.364;2023-02-28T08:26:41;40.55;;;24.67;;
20611;SDS011;10465;42.686;23.364;2023-02-28T08:29:06;39.78;;;25.17;;
20611;SDS011;10465;42.686;23.364;2023-02-28T08:31:32;38.33;;;24.83;;
20611;SDS011;10465;42.686;23.364;2023-02-28T08:33:57;35.67;;;22.55;;
20611;SDS011;10465;42.686;23.364;2023-02-28T08:36:24;39.92;;;24.05;;
20611;SDS011;10465;42.686;23.364;2023-02-28T08:38:51;38.38;;;24.42;;
20611;SDS011;10465;42.686;23.364;2023-02-28T08:41:17;42.28;;;25.88;;
20611;SDS011;10465;42.686;23.364;2023-02-28T08:43:42;38.72;;;23.85;;
20611;SDS011;10465;42.686;23.364;2023-02-28T08:46:09;39.75;;;22.75;;
20611;SDS011;10465;42.686;23.364;2023-02-28T08:48:37;35.60;;;18.95;;
20611;SDS011;10465;42.686;23.364;2023-02-28T08:51:10;37.13;;;18.55;;
20611;SDS011;10465;42.686;23.364;2023-02-28T08:53:46;30.67;;;16.75;;
20611;SDS011;10465;42.686;23.364;2023-02-28T08:56:14;33.20;;;16.23;;
20611;SDS011;10465;42.686;23.364;2023-02-28T08:58:41;32.00;;;16.15;;
20611;SDS011;10465;42.686;23.364;2023-02-28T09:01:11;30.80;;;16.38;;
20611;SDS011;10465;42.686;23.364;2023-02-28T09:03:39;30.92;;;15.35;;
20611;SDS011;10465;42.686;23.364;2023-02-28T09:06:08;31.45;;;16.80;;
20611;SDS011;10465;42.686;23.364;2023-02-28T09:08:35;36.67;;;17.05;;
20611;SDS011;10465;42.686;23.364;2023-02-28T09:11:02;26.75;;;13.95;;
20611;SDS011;10465;42.686;23.364;2023-02-28T09:13:28;30.15;;;16.00;;
20611;SDS011;10465;42.686;23.364;2023-02-28T09:15:56;22.52;;;14.57;;
20611;SDS011;10465;42.686;23.364;2023-02-28T09:18:23;29.00;;;14.63;;
20611;SDS011;10465;42.686;23.364;2023-02-28T09:20:49;24.73;;;14.88;;
20611;SDS011;10465;42.686;23.364;2023-02-28T09:23:33;27.73;;;14.85;;
20611;SDS011;10465;42.686;23.364;2023-02-28T09:25:59;22.80;;;14.40;;
20611;SDS011;10465;42.686;23.364;2023-02-28T09:28:25;28.35;;;14.43;;
20611;SDS011;10465;42.686;23.364;2023-02-28T09:30:52;28.20;;;14.63;;
20611;SDS011;10465;42.686;23.364;2023-02-28T09:33:19;23.92;;;13.75;;
20611;SDS011;10465;42.686;23.364;2023-02-28T09:35:46;25.20;;;13.50;;
20611;SDS011;10465;42.686;23.364;2023-02-28T09:38:16;25.98;;;14.02;;
20611;SDS011;10465;42.686;23.364;2023-02-28T09:40:47;29.02;;;15.05;;
20611;SDS011;10465;42.686;23.364;2023-02-28T09:43:15;25.70;;;14.32;;
20611;SDS011;10465;42.686;23.364;2023-02-28T09:45:43;25.67;;;14.52;;
20611;SDS011;10465;42.686;23.364;2023-02-28T09:48:18;25.90;;;13.07;;
20611;SDS011;10465;42.686;23.364;2023-02-28T09:50:48;26.02;;;14.57;;
20611;SDS011;10465;42.686;23.364;2023-02-28T09:55:48;27.77;;;12.98;;
20611;SDS011;10465;42.686;23.364;2023-02-28T09:58:19;25.40;;;13.75;;
20611;SDS011;10465;42.686;23.364;2023-02-28T10:00:55;24.08;;;13.30;;
20611;SDS011;10465;42.686;23.364;2023-02-28T10:04:33;22.08;;;12.40;;
20611;SDS011;10465;42.686;23.364;2023-02-28T10:06:49;21.73;;;12.43;;
20611;SDS011;10465;42.686;23.364;2023-02-28T10:09:23;20.42;;;12.93;;
20611;SDS011;10465;42.686;23.364;2023-02-28T10:11:52;24.55;;;13.43;;
20611;SDS011;10465;42.686;23.364;2023-02-28T10:14:29;23.15;;;12.02;;
20611;SDS011;10465;42.686;23.364;2023-02-28T10:17:02;24.67;;;12.65;;
20611;SDS011;10465;42.686;23.364;2023-02-28T10:24:40;27.85;;;12.23;;
20611;SDS011;10465;42.686;23.364;2023-02-28T10:27:23;22.92;;;10.85;;
20611;SDS011;10465;42.686;23.364;2023-02-28T10:29:50;25.95;;;11.02;;
20611;SDS011;10465;42.686;23.364;2023-02-28T10:32:25;20.85;;;10.95;;
20611;SDS011;10465;42.686;23.364;2023-02-28T10:35:07;21.30;;;11.40;;
20611;SDS011;10465;42.686;23.364;2023-02-28T10:37:47;19.65;;;11.02;;
20611;SDS011;10465;42.686;23.364;2023-02-28T10:42:54;23.25;;;10.65;;
20611;SDS011;10465;42.686;23.364;2023-02-28T10:45:28;21.95;;;11.43;;
20611;SDS011;10465;42.686;23.364;2023-02-28T10:47:58;20.08;;;10.25;;
20611;SDS011;10465;42.686;23.364;2023-02-28T11:06:44;22.45;;;12.35;;
20611;SDS011;10465;42.686;23.364;2023-02-28T11:09:19;21.17;;;11.48;;
20611;SDS011;10465;42.686;23.364;2023-02-28T11:11:50;19.92;;;11.32;;
20611;SDS011;10465;42.686;23.364;2023-02-28T11:14:22;24.50;;;11.32;;
20611;SDS011;10465;42.686;23.364;2023-02-28T11:16:58;19.58;;;10.55;;
20611;SDS011;10465;42.686;23.364;2023-02-28T11:19:38;23.02;;;11.38;;
20611;SDS011;10465;42.686;23.364;2023-02-28T11:22:09;20.27;;;11.38;;
20611;SDS011;10465;42.686;23.364;2023-02-28T11:24:42;19.30;;;10.48;;
20611;SDS011;10465;42.686;23.364;2023-02-28T11:29:55;26.92;;;11.60;;
20611;SDS011;10465;42.686;23.364;2023-02-28T11:32:22;21.95;;;11.82;;
20611;SDS011;10465;42.686;23.364;2023-02-28T11:37:51;24.77;;;13.35;;
20611;SDS011;10465;42.686;23.364;2023-02-28T11:40:27;20.00;;;11.27;;
20611;SDS011;10465;42.686;23.364;2023-02-28T11:56:03;27.25;;;12.25;;
20611;SDS011;10465;42.686;23.364;2023-02-28T12:01:20;22.95;;;12.13;;
20611;SDS011;10465;42.686;23.364;2023-02-28T12:11:55;26.13;;;12.93;;
20611;SDS011;10465;42.686;23.364;2023-02-28T12:14:46;19.60;;;11.45;;
20611;SDS011;10465;42.686;23.364;2023-02-28T12:28:35;23.30;;;13.05;;
20611;SDS011;10465;42.686;23.364;2023-02-28T12:31:17;26.27;;;12.63;;
20611;SDS011;10465;42.686;23.364;2023-02-28T12:33:53;24.92;;;12.27;;
20611;SDS011;10465;42.686;23.364;2023-02-28T12:36:25;25.63;;;12.93;;
20611;SDS011;10465;42.686;23.364;2023-02-28T12:38:55;21.42;;;12.20;;
20611;SDS011;10465;42.686;23.364;2023-02-28T12:44:08;21.35;;;11.63;;
20611;SDS011;10465;42.686;23.364;2023-02-28T12:46:41;26.27;;;11.70;;
20611;SDS011;10465;42.686;23.364;2023-02-28T12:49:10;23.52;;;11.05;;
20611;SDS011;10465;42.686;23.364;2023-02-28T12:51:40;19.15;;;10.10;;
20611;SDS011;10465;42.686;23.364;2023-02-28T12:56:52;23.80;;;11.52;;
20611;SDS011;10465;42.686;23.364;2023-02-28T13:00:03;19.40;;;10.38;;
20611;SDS011;10465;42.686;23.364;2023-02-28T13:11:04;27.48;;;12.27;;
20611;SDS011;10465;42.686;23.364;2023-02-28T13:13:23;24.85;;;10.25;;
20611;SDS011;10465;42.686;23.364;2023-02-28T13:16:00;23.35;;;10.90;;
20611;SDS011;10465;42.686;23.364;2023-02-28T13:18:29;22.33;;;10.73;;
20611;SDS011;10465;42.686;23.364;2023-02-28T13:21:29;22.73;;;10.95;;
20611;SDS011;10465;42.686;23.364;2023-02-28T13:32:18;26.35;;;12.25;;
20611;SDS011;10465;42.686;23.364;2023-02-28T13:34:39;28.67;;;11.48;;
20611;SDS011;10465;42.686;23.364;2023-02-28T13:39:53;26.10;;;11.45;;
20611;SDS011;10465;42.686;23.364;2023-02-28T13:52:55;23.48;;;10.68;;
20611;SDS011;10465;42.686;23.364;2023-02-28T14:04:02;23.70;;;11.32;;
20611;SDS011;10465;42.686;23.364;2023-02-28T14:06:47;17.55;;;9.75;;
20611;SDS011;10465;42.686;23.364;2023-02-28T14:18:16;20.42;;;10.88;;
20611;SDS011;10465;42.686;23.364;2023-02-28T14:20:46;22.20;;;10.40;;
20611;SDS011;10465;42.686;23.364;2023-02-28T14:23:20;23.10;;;10.60;;
20611;SDS011;10465;42.686;23.364;2023-02-28T14:25:53;22.08;;;9.32;;
20611;SDS011;10465;42.686;23.364;2023-02-28T14:31:35;24.35;;;10.82;;
20611;SDS011;10465;42.686;23.364;2023-02-28T14:37:11;25.05;;;10.05;;
20611;SDS011;10465;42.686;23.364;2023-02-28T14:39:42;22.23;;;11.43;;
20611;SDS011;10465;42.686;23.364;2023-02-28T14:42:29;27.23;;;10.55;;
20611;SDS011;10465;42.686;23.364;2023-02-28T14:44:55;21.67;;;9.52;;
20611;SDS011;10465;42.686;23.364;2023-02-28T14:47:24;19.77;;;10.00;;
20611;SDS011;10465;42.686;23.364;2023-02-28T14:49:53;20.75;;;10.15;;
20611;SDS011;10465;42.686;23.364;2023-02-28T14:52:21;22.38;;;10.80;;
20611;SDS011;10465;42.686;23.364;2023-02-28T14:54:59;29.17;;;10.82;;
20611;SDS011;10465;42.686;23.364;2023-02-28T14:57:34;27.08;;;10.70;;
20611;SDS011;10465;42.686;23.364;2023-02-28T15:02:39;25.92;;;10.73;;
20611;SDS011;10465;42.686;23.364;2023-02-28T15:07:34;22.70;;;10.48;;
20611;SDS011;10465;42.686;23.364;2023-02-28T15:12:49;19.33;;;9.35;;
20611;SDS011;10465;42.686;23.364;2023-02-28T15:15:18;21.45;;;10.50;;
20611;SDS011;10465;42.686;23.364;2023-02-28T15:17:46;20.77;;;10.15;;
20611;SDS011;10465;42.686;23.364;2023-02-28T15:20:16;20.13;;;9.57;;
20611;SDS011;10465;42.686;23.364;2023-02-28T15:22:43;25.75;;;12.40;;
20611;SDS011;10465;42.686;23.364;2023-02-28T15:25:13;18.60;;;10.23;;
20611;SDS011;10465;42.686;23.364;2023-02-28T15:27:44;15.82;;;10.13;;
20611;SDS011;10465;42.686;23.364;2023-02-28T15:30:32;17.92;;;9.70;;
20611;SDS011;10465;42.686;23.364;2023-02-28T15:33:05;15.43;;;9.60;;
20611;SDS011;10465;42.686;23.364;2023-02-28T15:35:37;14.93;;;9.57;;
20611;SDS011;10465;42.686;23.364;2023-02-28T15:40:54;17.50;;;9.52;;
20611;SDS011;10465;42.686;23.364;2023-02-28T15:43:27;16.45;;;9.25;;
20611;SDS011;10465;42.686;23.364;2023-02-28T15:46:01;20.08;;;9.48;;
20611;SDS011;10465;42.686;23.364;2023-02-28T15:48:32;14.32;;;9.30;;
20611;SDS011;10465;42.686;23.364;2023-02-28T15:53:41;15.48;;;9.15;;
20611;SDS011;10465;42.686;23.364;2023-02-28T15:56:20;17.25;;;10.35;;
20611;SDS011;10465;42.686;23.364;2023-02-28T15:58:49;17.90;;;10.40;;
20611;SDS011;10465;42.686;23.364;2023-02-28T16:01:28;16.05;;;9.68;;
20611;SDS011;10465;42.686;23.364;2023-02-28T16:04:00;15.98;;;9.73;;
20611;SDS011;10465;42.686;23.364;2023-02-28T16:09:25;39.95;;;23.27;;
20611;SDS011;10465;42.686;23.364;2023-02-28T16:11:54;62.28;;;38.10;;
20611;SDS011;10465;42.686;23.364;2023-02-28T16:14:22;43.90;;;27.40;;
20611;SDS011;10465;42.686;23.364;2023-02-28T16:16:50;43.30;;;29.20;;
20611;SDS011;10465;42.686;23.364;2023-02-28T16:19:18;32.88;;;19.85;;
20611;SDS011;10465;42.686;23.364;2023-02-28T16:21:44;31.95;;;19.77;;
20611;SDS011;10465;42.686;23.364;2023-02-28T16:24:10;27.00;;;18.80;;
20611;SDS011;10465;42.686;23.364;2023-02-28T16:26:36;22.35;;;14.63;;
20611;SDS011;10465;42.686;23.364;2023-02-28T16:29:08;18.77;;;10.68;;
20611;SDS011;10465;42.686;23.364;2023-02-28T16:31:38;18.08;;;9.68;;
20611;SDS011;10465;42.686;23.364;2023-02-28T16:34:04;17.75;;;8.75;;
20611;SDS011;10465;42.686;23.364;2023-02-28T16:36:30;16.77;;;8.85;;
20611;SDS011;10465;42.686;23.364;2023-02-28T16:38:55;19.02;;;8.55;;
20611;SDS011;10465;42.686;23.364;2023-02-28T16:41:22;14.00;;;7.22;;
20611;SDS011;10465;42.686;23.364;2023-02-28T16:43:51;12.25;;;6.95;;
20611;SDS011;10465;42.686;23.364;2023-02-28T16:46:18;13.55;;;7.28;;
20611;SDS011;10465;42.686;23.364;2023-02-28T16:48:45;13.82;;;7.55;;
20611;SDS011;10465;42.686;23.364;2023-02-28T16:51:11;11.20;;;6.88;;
20611;SDS011;10465;42.686;23.364;2023-02-28T16:53:38;15.40;;;7.60;;
20611;SDS011;10465;42.686;23.364;2023-02-28T16:56:04;10.40;;;6.57;;
20611;SDS011;10465;42.686;23.364;2023-02-28T16:58:32;11.38;;;6.60;;
20611;SDS011;10465;42.686;23.364;2023-02-28T17:01:00;13.20;;;6.93;;
20611;SDS011;10465;42.686;23.364;2023-02-28T17:03:27;14.52;;;7.28;;
20611;SDS011;10465;42.686;23.364;2023-02-28T17:05:53;11.43;;;6.82;;
20611;SDS011;10465;42.686;23.364;2023-02-28T17:08:18;8.52;;;5.45;;
20611;SDS011;10465;42.686;23.364;2023-02-28T17:10:44;13.02;;;6.20;;
20611;SDS011;10465;42.686;23.364;2023-02-28T17:13:09;9.20;;;5.60;;
20611;SDS011;10465;42.686;23.364;2023-02-28T17:15:35;9.68;;;5.38;;
20611;SDS011;10465;42.686;23.364;2023-02-28T17:18:02;7.60;;;4.20;;
20611;SDS011;10465;42.686;23.364;2023-02-28T17:20:28;7.60;;;4.70;;
20611;SDS011;10465;42.686;23.364;2023-02-28T17:22:54;7.95;;;4.60;;
20611;SDS011;10465;42.686;23.364;2023-02-28T17:25:20;7.72;;;4.28;;
20611;SDS011;10465;42.686;23.364;2023-02-28T17:27:46;7.65;;;4.47;;
20611;SDS011;10465;42.686;23.364;2023-02-28T17:30:25;8.00;;;4.82;;